Portada
METAR-TAF:

METAR-TAF

Aeroports :

Aeroport Internacional de Ruzyně

Praga, República Txeca

latitud: 50-06N, longitud: 014-15E, altitud: 365 m

Observació

L'informe es va fer fa 15 minuts, a les 04:30 UTC
Vent 3 kt amb direcció variable
Temperatura 4°C
Humitat 81%
Pressió 1025 hPa
Visibilitat 10 km o més
sense núvols per sota de 1500 mi sense presència de cumulonimbus.

METAR: LKPR 210430Z VRB03KT CAVOK 04/01 Q1025 NOSIG

Hora: 06:45 (04:45 UTC)

Pronòstic

L'informe es va fer fa 5 hores i 45 minuts, a les 23:00 UTC
Pronòstic vàlid del 21 a les 00 UTC al 22 a les 06 UTC
Vent 2 kt amb direcció variable
Visibilitat 10 km o més
sense núvols per sota de 1500 mi sense presència de cumulonimbus.
Evolucionant progressivament
l' 21 a les 06 UTC al 21 a les 09 UTC
Vent 6 kt del Sud-Est

TAF: LKPR 202300Z 2100/2206 VRB02KT CAVOK BECMG 2106/2109 14006KT

Observacions i pronòstics meteorològics de més de 4000 aeroports (METAR i TAF).

Les estacions disponibles són els punts grocs i vermells al mapa.

Posi el ratolí al punt desitjat per veure el nom de l'estació.

Feu clic per veure les observacions i els pronòstics meteorològics.

Per canviar el mapa: feu clic els botons verds amb una creu de color negre per apropar; al botó verd amb un guió per allunyar la imatge; o en les fletxes verdes per a mapes adjacents.


METAR-TAF: